Time;durP1;ratioP1;P1;durP2;ratioP2;P2;SDS_P1;SDS_P2;PMS_P1;PMS_P2;Temp;Humidity;BMP_temperature;BMP_pressure;BME280_temperature;BME280_humidity;BME280_pressure;Samples;Min_cycle;Max_cycle;Signal;HPM_P1;HPM_P2
2021/06/18 00:02:13;;;;;;;8.53;7.83;;;22.80;91.80;;;;;;5098858;28;20454;-82
2021/06/18 00:04:45;;;;;;;8.47;7.70;;;22.70;91.90;;;;;;5098878;28;20447;-82
2021/06/18 00:07:12;;;;;;;9.33;8.63;;;22.70;92.10;;;;;;5098801;28;20458;-82
2021/06/18 00:09:40;;;;;;;9.13;8.33;;;22.70;92.10;;;;;;5098845;28;20534;-82
2021/06/18 00:12:08;;;;;;;7.70;7.20;;;22.60;92.20;;;;;;5098857;28;20493;-82
2021/06/18 00:14:35;;;;;;;8.23;7.63;;;22.60;92.30;;;;;;5098908;28;20464;-82
2021/06/18 00:17:02;;;;;;;8.63;7.70;;;22.60;92.30;;;;;;5098810;28;20949;-82
2021/06/18 00:19:32;;;;;;;8.00;7.40;;;22.60;92.30;;;;;;5098725;28;20456;-82
2021/06/18 00:21:59;;;;;;;8.43;7.93;;;22.50;92.80;;;;;;5099354;28;20932;-82
2021/06/18 00:24:28;;;;;;;8.30;7.60;;;22.50;92.70;;;;;;5098905;28;20508;-82
2021/06/18 00:27:35;;;;;;;;;;;;;;;;;;;;;
2021/06/18 00:46:40;;;;;;;8.73;7.97;;;22.00;94.60;;;;;;4961846;28;20467;-81
2021/06/18 00:49:10;;;;;;;9.87;9.00;;;21.90;95.10;;;;;;5090504;28;20461;-82
2021/06/18 00:51:37;;;;;;;9.27;8.67;;;21.90;95.40;;;;;;5102123;28;20492;-82
2021/06/18 00:54:04;;;;;;;9.47;8.70;;;21.80;95.80;;;;;;5101758;28;20440;-82
2021/06/18 00:56:31;;;;;;;8.67;8.07;;;21.80;95.60;;;;;;5102982;28;20937;-82
2021/06/18 00:58:59;;;;;;;8.93;8.20;;;21.80;95.70;;;;;;5101767;28;20469;-82
2021/06/18 01:01:25;;;;;;;9.03;8.03;;;21.70;95.70;;;;;;5102232;28;20474;-82
2021/06/18 01:03:54;;;;;;;8.43;7.80;;;21.70;95.60;;;;;;5101728;28;20458;-82
2021/06/18 01:06:27;;;;;;;8.23;7.53;;;21.70;95.40;;;;;;5101633;28;20463;-82
2021/06/18 01:08:59;;;;;;;8.17;7.57;;;21.70;95.50;;;;;;5101712;28;20461;-82
2021/06/18 01:11:35;;;;;;;8.07;7.47;;;21.60;95.50;;;;;;5102149;28;20538;-82
2021/06/18 01:14:07;;;;;;;8.43;7.80;;;21.60;95.70;;;;;;5101929;28;21001;-82
2021/06/18 01:16:36;;;;;;;9.00;8.40;;;21.60;95.90;;;;;;5101479;28;20466;-82
2021/06/18 01:19:12;;;;;;;8.40;7.87;;;21.60;95.90;;;;;;5102220;28;20479;-82
2021/06/18 01:21:42;;;;;;;8.97;8.30;;;21.60;95.90;;;;;;5101126;28;20438;-82
2021/06/18 01:53:05;;;;;;;9.23;8.50;;;21.40;97.30;;;;;;4962740;28;20922;-83
2021/06/18 01:55:34;;;;;;;9.13;8.43;;;21.30;97.60;;;;;;5022641;28;20460;-83
2021/06/18 01:58:04;;;;;;;8.60;8.00;;;21.30;98.20;;;;;;5082229;28;20467;-83
2021/06/18 02:00:33;;;;;;;10.00;9.00;;;21.30;98.00;;;;;;5104964;28;20475;-82
2021/06/18 02:03:05;;;;;;;10.10;9.20;;;21.30;98.10;;;;;;5104792;28;20475;-83
2021/06/18 02:05:34;;;;;;;9.67;8.83;;;21.30;98.10;;;;;;5106220;28;20452;-83
2021/06/18 02:08:03;;;;;;;10.13;9.23;;;21.20;98.20;;;;;;5105674;28;20460;-83
2021/06/18 02:10:31;;;;;;;9.43;8.80;;;21.20;98.20;;;;;;5106396;28;20473;-83
2021/06/18 02:12:58;;;;;;;9.23;8.43;;;21.20;98.30;;;;;;5105885;28;20483;-83
2021/06/18 02:15:29;;;;;;;9.87;9.07;;;21.20;98.50;;;;;;5105424;28;20443;-82
2021/06/18 02:17:57;;;;;;;9.07;8.33;;;21.20;98.70;;;;;;5105086;28;20441;-83
2021/06/18 02:20:24;;;;;;;8.93;8.30;;;21.10;98.80;;;;;;5103455;28;20464;-82
2021/06/18 02:22:52;;;;;;;8.47;7.77;;;21.10;99.00;;;;;;5104392;28;20463;-83
2021/06/18 02:25:21;;;;;;;8.97;8.17;;;21.10;99.00;;;;;;5104315;28;20441;-83
2021/06/18 02:27:48;;;;;;;8.20;7.70;;;21.10;98.90;;;;;;5104020;28;20448;-82
2021/06/18 02:30:16;;;;;;;9.43;8.73;;;21.10;99.00;;;;;;5104935;28;20479;-83
2021/06/18 02:32:44;;;;;;;8.50;7.87;;;21.00;99.10;;;;;;5105420;28;20849;-83
2021/06/18 02:35:11;;;;;;;9.10;8.40;;;21.00;99.20;;;;;;5105979;28;20446;-82
2021/06/18 02:37:38;;;;;;;10.07;9.17;;;21.00;99.30;;;;;;5104897;28;20456;-83
2021/06/18 02:40:07;;;;;;;9.17;8.57;;;20.90;99.20;;;;;;5105083;28;20471;-83
2021/06/18 02:42:35;;;;;;;9.57;8.83;;;20.90;99.30;;;;;;5104095;28;20447;-83
2021/06/18 02:45:02;;;;;;;8.57;7.97;;;20.90;99.50;;;;;;5102474;28;20443;-82
2021/06/18 02:47:33;;;;;;;9.90;9.00;;;20.90;99.60;;;;;;5099595;28;20459;-82
2021/06/18 02:50:27;;;;;;;8.13;7.53;;;20.90;99.80;;;;;;5095771;28;20485;-82
2021/06/18 02:53:01;;;;;;;9.30;8.60;;;20.80;99.90;;;;;;5046721;28;20567;-82
2021/06/18 02:55:51;;;;;;;8.63;8.03;;;20.80;99.90;;;;;;5094808;28;20460;-82
2021/06/18 03:08:37;;;;;;;;;;;;;;;;;;;;;
2021/06/18 03:11:19;;;;;;;9.00;8.40;;;19.90;99.90;;;;;;4943625;29;20561;-82
2021/06/18 03:30:39;;;;;;;7.27;6.67;;;20.50;99.60;;;;;;4859415;29;20485;-82
2021/06/18 03:33:11;;;;;;;7.53;6.97;;;20.60;99.10;;;;;;4936478;28;20493;-82
2021/06/18 03:35:53;;;;;;;8.23;7.43;;;20.60;98.50;;;;;;4972845;28;20503;-82
2021/06/18 03:38:32;;;;;;;;;;;;;;;;;;;;;
2021/06/18 03:41:10;;;;;;;7.37;5.97;;;20.60;98.50;;;;;;5053580;28;20463;-82
2021/06/18 03:43:38;;;;;;;9.63;7.47;;;20.50;98.70;;;;;;5093882;28;20452;-82
2021/06/18 03:46:15;;;;;;;7.70;7.10;;;20.70;98.60;;;;;;5094577;28;20452;-82
2021/06/18 03:48:44;;;;;;;8.77;8.03;;;20.70;98.30;;;;;;5094479;28;20883;-82
2021/06/18 03:51:15;;;;;;;7.70;7.20;;;20.80;98.20;;;;;;5094535;28;20467;-82
2021/06/18 04:03:43;;;;;;;8.90;8.20;;;20.90;98.60;;;;;;4862418;29;20487;-82
2021/06/18 04:06:14;;;;;;;8.00;7.40;;;21.00;98.70;;;;;;5007964;28;20576;-82
2021/06/18 04:08:53;;;;;;;9.00;8.30;;;21.00;98.60;;;;;;5079478;28;20461;-82
2021/06/18 04:11:24;;;;;;;7.43;6.80;;;21.00;98.60;;;;;;5099153;28;20469;-81
2021/06/18 04:14:11;;;;;;;;;;;;;;;;;;;;;
2021/06/18 04:20:23;;;;;;;7.80;7.20;;;21.00;98.00;;;;;;4899383;29;20498;-82
2021/06/18 04:23:02;;;;;;;7.63;6.93;;;21.00;97.10;;;;;;4985108;28;20447;-83
2021/06/18 04:55:56;;;;;;;10.03;7.43;;;22.40;95.80;;;;;;4866937;29;20904;-82
2021/06/18 04:58:41;;;;;;;7.33;6.83;;;22.40;96.00;;;;;;4971278;28;20450;-82
2021/06/18 05:07:57;;;;;;;8.17;7.20;;;22.50;95.80;;;;;;4849950;29;20459;-83
2021/06/18 05:48:07;;;;;;;;;;;;;;;;;;;;;
2021/06/18 05:50:34;;;;;;;5.70;5.33;;;23.40;94.10;;;;;;4958548;28;20527;-82
2021/06/18 05:53:04;;;;;;;6.07;5.47;;;23.50;94.00;;;;;;5058500;28;20491;-82
2021/06/18 05:55:31;;;;;;;6.90;6.50;;;23.60;93.00;;;;;;5086799;28;20451;-82
2021/06/18 05:57:57;;;;;;;7.10;6.60;;;23.70;93.00;;;;;;5086987;28;20540;-82
2021/06/18 06:00:26;;;;;;;5.83;5.40;;;23.70;92.90;;;;;;5087523;28;20471;-84
2021/06/18 06:02:59;;;;;;;6.63;6.03;;;23.80;93.00;;;;;;5085918;28;20447;-83
2021/06/18 06:05:28;;;;;;;5.77;5.27;;;23.80;92.30;;;;;;5084686;28;20467;-83
2021/06/18 06:07:55;;;;;;;5.60;5.10;;;23.90;92.50;;;;;;5084717;28;20452;-83
2021/06/18 06:10:44;;;;;;;5.40;5.00;;;24.10;92.20;;;;;;5083500;28;20467;-83
2021/06/18 06:13:11;;;;;;;6.67;6.10;;;24.20;92.00;;;;;;5078903;28;20483;-82
2021/06/18 06:15:39;;;;;;;5.50;5.00;;;24.20;91.80;;;;;;5091040;28;20451;-82
2021/06/18 06:18:06;;;;;;;4.93;4.60;;;24.30;91.90;;;;;;5093818;28;20474;-83
2021/06/18 06:20:55;;;;;;;8.50;6.20;;;24.30;91.80;;;;;;5092749;28;20486;-84
2021/06/18 06:23:29;;;;;;;5.53;5.03;;;24.30;91.80;;;;;;5091271;28;20501;-82
2021/06/18 06:25:58;;;;;;;5.97;5.57;;;24.50;91.20;;;;;;5095776;28;20446;-83
2021/06/18 06:28:34;;;;;;;5.63;5.23;;;24.60;91.50;;;;;;5096222;28;20911;-83
2021/06/18 06:31:08;;;;;;;5.70;5.20;;;24.50;91.50;;;;;;5093003;28;20553;-83
2021/06/18 06:33:35;;;;;;;5.30;4.83;;;24.60;91.60;;;;;;5095903;28;20488;-83
2021/06/18 06:36:10;;;;;;;4.97;4.67;;;24.70;91.20;;;;;;5094208;28;20451;-84
2021/06/18 06:38:37;;;;;;;6.17;5.40;;;24.80;91.30;;;;;;5102341;28;20812;-81
2021/06/18 06:41:03;;;;;;;5.30;4.90;;;24.90;91.30;;;;;;5109672;28;20475;-82
2021/06/18 06:43:30;;;;;;;5.70;5.20;;;24.90;91.20;;;;;;5108680;28;20475;-82
2021/06/18 06:45:57;;;;;;;6.10;5.53;;;25.00;91.30;;;;;;5107724;28;20455;-82
2021/06/18 06:48:25;;;;;;;6.43;4.73;;;25.10;91.00;;;;;;5107673;28;20993;-82
2021/06/18 06:50:52;;;;;;;4.83;4.33;;;25.20;90.70;;;;;;5108248;28;20482;-82
2021/06/18 06:53:21;;;;;;;5.63;5.23;;;25.30;90.60;;;;;;5107372;28;20475;-82
2021/06/18 06:55:47;;;;;;;5.87;5.50;;;25.30;90.50;;;;;;5108115;28;20448;-84
2021/06/18 07:26:14;;;;;;;8.60;7.80;;;26.10;92.10;;;;;;4909176;28;20457;-84
2021/06/18 07:41:21;;;;;;;8.33;7.37;;;26.40;92.70;;;;;;4974243;28;20875;-84
2021/06/18 07:47:27;;;;;;;;;;;;;;;;;;;;;
2021/06/18 08:00:25;;;;;;;8.17;7.63;;;26.80;91.50;;;;;;4981512;28;20969;-84
2021/06/18 08:08:26;;;;;;;8.10;7.40;;;26.90;90.10;;;;;;3404910;26;20556;-80
2021/06/18 08:10:53;;;;;;;8.17;7.43;;;27.00;89.00;;;;;;5100604;28;20523;-81
2021/06/18 08:13:22;;;;;;;7.23;6.63;;;27.10;88.80;;;;;;5099537;28;20485;-81
2021/06/18 08:15:48;;;;;;;8.30;7.60;;;27.20;90.40;;;;;;5100825;28;20522;-79
2021/06/18 08:18:15;;;;;;;8.67;7.80;;;27.30;90.20;;;;;;5099872;28;20448;-79
2021/06/18 08:20:43;;;;;;;8.53;7.87;;;27.30;88.70;;;;;;5098449;28;20444;-80
2021/06/18 08:23:10;;;;;;;7.67;7.07;;;27.40;88.70;;;;;;5099218;28;20445;-81
2021/06/18 08:25:37;;;;;;;8.30;7.60;;;27.40;88.00;;;;;;5099850;28;20437;-80
2021/06/18 08:28:04;;;;;;;9.60;8.67;;;27.50;87.80;;;;;;5099609;28;20511;-79
2021/06/18 08:30:32;;;;;;;8.23;7.43;;;27.50;87.90;;;;;;5099859;28;20476;-80
2021/06/18 08:32:59;;;;;;;9.13;8.33;;;27.60;88.30;;;;;;5099348;28;20536;-81
2021/06/18 08:35:27;;;;;;;11.47;8.43;;;27.70;87.70;;;;;;5100109;28;20445;-80
2021/06/18 08:37:54;;;;;;;9.30;8.63;;;27.80;87.60;;;;;;5099925;28;20531;-81
2021/06/18 08:40:20;;;;;;;9.27;8.47;;;27.90;87.20;;;;;;5098741;28;20476;-81
2021/06/18 08:42:50;;;;;;;8.90;8.30;;;28.00;88.40;;;;;;5086129;28;20954;-82
2021/06/18 08:45:17;;;;;;;8.03;7.40;;;28.10;87.60;;;;;;5081752;28;20459;-81
2021/06/18 08:47:45;;;;;;;8.90;8.30;;;28.20;86.80;;;;;;5081710;28;20451;-82
2021/06/18 08:50:14;;;;;;;10.50;8.33;;;28.30;86.40;;;;;;5081813;28;20465;-81
2021/06/18 08:52:44;;;;;;;8.77;8.00;;;28.40;85.60;;;;;;5081993;28;20465;-82
2021/06/18 08:55:16;;;;;;;10.00;9.17;;;28.50;85.30;;;;;;5082403;28;20539;-82
2021/06/18 08:57:43;;;;;;;8.60;7.90;;;28.50;86.90;;;;;;5081637;28;20941;-82
2021/06/18 09:00:10;;;;;;;9.17;8.47;;;28.60;86.90;;;;;;5083121;28;20470;-82
2021/06/18 09:02:37;;;;;;;9.27;8.67;;;28.70;86.10;;;;;;5093037;28;20434;-80
2021/06/18 09:05:08;;;;;;;9.90;9.10;;;28.80;85.40;;;;;;5098854;28;20441;-81
2021/06/18 09:07:55;;;;;;;9.30;8.50;;;28.90;86.00;;;;;;5099471;28;20450;-81
2021/06/18 09:10:28;;;;;;;9.50;8.80;;;29.00;83.60;;;;;;5099193;28;20478;-80
2021/06/18 09:13:09;;;;;;;9.07;8.47;;;29.10;83.20;;;;;;5099216;28;20420;-80
2021/06/18 09:15:36;;;;;;;9.63;8.93;;;29.20;82.70;;;;;;5099633;28;20511;-80
2021/06/18 09:18:22;;;;;;;8.70;7.80;;;29.20;82.90;;;;;;5098853;28;20450;-81
2021/06/18 09:20:51;;;;;;;8.50;7.90;;;29.40;82.10;;;;;;5099362;28;20504;-80
2021/06/18 09:23:22;;;;;;;9.47;8.57;;;29.50;80.80;;;;;;5098962;28;20465;-81
2021/06/18 09:25:49;;;;;;;10.27;9.40;;;29.60;80.20;;;;;;5099296;28;20479;-80
2021/06/18 09:28:15;;;;;;;8.43;7.83;;;29.70;80.70;;;;;;5098884;28;20508;-81
2021/06/18 09:30:43;;;;;;;9.20;8.47;;;29.70;82.00;;;;;;5098017;28;20478;-81
2021/06/18 09:33:21;;;;;;;10.13;9.33;;;29.80;81.30;;;;;;5086820;28;20454;-82
2021/06/18 09:36:06;;;;;;;9.07;8.47;;;29.90;80.90;;;;;;5081656;28;20450;-82
2021/06/18 09:38:40;;;;;;;10.13;9.17;;;30.10;78.30;;;;;;5081111;28;20462;-82
2021/06/18 09:41:28;;;;;;;9.90;9.20;;;30.10;78.90;;;;;;5081060;28;20531;-82
2021/06/18 09:43:58;;;;;;;9.17;8.57;;;30.20;77.50;;;;;;5081267;28;20798;-82
2021/06/18 09:46:41;;;;;;;10.23;9.43;;;30.20;76.90;;;;;;5081765;28;20446;-83
2021/06/18 09:49:08;;;;;;;11.30;10.40;;;30.30;77.70;;;;;;5082748;28;20451;-82
2021/06/18 09:52:16;;;;;;;9.03;8.43;;;30.50;79.40;;;;;;5081337;28;20476;-82
2021/06/18 09:54:49;;;;;;;10.00;9.07;;;30.60;76.60;;;;;;5076894;28;20505;-84
2021/06/18 09:57:35;;;;;;;8.67;8.07;;;30.80;72.90;;;;;;5077495;28;20529;-84
2021/06/18 10:00:11;;;;;;;9.70;9.00;;;30.90;72.50;;;;;;5061214;28;20485;-84
2021/06/18 10:03:21;;;;;;;10.17;9.43;;;31.10;74.90;;;;;;5070590;28;20447;-84
2021/06/18 10:27:10;;;;;;;7.97;7.27;;;32.30;63.50;;;;;;4856721;28;20445;-82
2021/06/18 10:29:39;;;;;;;8.00;7.50;;;32.30;59.90;;;;;;5043863;28;20655;-82
2021/06/18 10:32:36;;;;;;;7.97;7.33;;;32.40;58.50;;;;;;5080997;28;20878;-81
2021/06/18 10:35:06;;;;;;;8.30;7.73;;;32.50;58.10;;;;;;5080053;28;20493;-81
2021/06/18 10:37:34;;;;;;;6.73;6.23;;;32.70;62.10;;;;;;5080435;28;20927;-81
2021/06/18 10:40:10;;;;;;;6.03;5.73;;;32.90;58.80;;;;;;5079937;28;20904;-82
2021/06/18 10:43:05;;;;;;;6.97;6.47;;;33.10;53.90;;;;;;5078629;28;21178;-81
2021/06/18 10:46:04;;;;;;;6.77;6.37;;;33.30;53.90;;;;;;5079374;28;20965;-81
2021/06/18 10:52:01;;;;;;;6.50;6.10;;;33.70;53.20;;;;;;5034445;28;20463;-85
2021/06/18 10:54:46;;;;;;;6.53;5.97;;;33.90;54.20;;;;;;5058962;28;20484;-82
2021/06/18 10:57:15;;;;;;;7.40;7.00;;;34.00;49.80;;;;;;5072140;28;20520;-84
2021/06/18 10:59:46;;;;;;;5.87;5.37;;;34.30;49.70;;;;;;5063182;28;20468;-82
2021/06/18 11:02:34;;;;;;;5.53;5.23;;;34.50;45.00;;;;;;5067374;28;20456;-81
2021/06/18 11:05:01;;;;;;;6.37;5.97;;;34.60;47.90;;;;;;5068046;28;20542;-78
2021/06/18 11:08:06;;;;;;;7.00;6.50;;;34.70;48.60;;;;;;5075422;28;20468;-83
2021/06/18 11:10:44;;;;;;;5.77;5.37;;;35.00;48.70;;;;;;5078467;28;20515;-83
2021/06/18 11:13:38;;;;;;;;;;;;;;;;;;;;;
2021/06/18 11:26:23;;;;;;;5.30;5.00;;;37.70;43.00;;;;;;4871789;28;20510;-83
2021/06/18 11:28:51;;;;;;;5.70;5.40;;;38.20;43.30;;;;;;5080384;28;20448;-82
2021/06/18 11:31:50;;;;;;;;;;;;;;;;;;;;;
2021/06/18 11:34:33;;;;;;;7.70;7.10;;;38.80;39.10;;;;;;5067884;28;20489;-83
2021/06/18 11:37:12;;;;;;;4.60;4.30;;;39.30;43.80;;;;;;5077259;28;20531;-81
2021/06/18 11:39:43;;;;;;;4.37;4.17;;;39.80;36.30;;;;;;5065454;28;20543;-79
2021/06/18 11:42:11;;;;;;;4.60;4.30;;;40.30;37.40;;;;;;5078802;28;20814;-80
2021/06/18 11:44:38;;;;;;;4.43;4.13;;;40.70;32.80;;;;;;5079681;28;20843;-81
2021/06/18 11:47:06;;;;;;;4.57;4.23;;;41.10;33.10;;;;;;5080193;28;20870;-80
2021/06/18 11:49:35;;;;;;;4.17;3.87;;;41.50;31.20;;;;;;5077199;28;20447;-79
2021/06/18 11:52:09;;;;;;;4.90;4.50;;;41.90;30.00;;;;;;5078577;28;20449;-79
2021/06/18 11:54:44;;;;;;;5.27;4.87;;;42.30;32.10;;;;;;5077864;28;20980;-79
2021/06/18 11:57:21;;;;;;;4.90;4.60;;;42.00;30.00;;;;;;5078730;28;20451;-79
2021/06/18 11:59:57;;;;;;;4.63;4.33;;;42.20;33.80;;;;;;5078249;28;20856;-79
2021/06/18 12:02:28;;;;;;;4.90;4.63;;;42.40;29.70;;;;;;5078062;28;20469;-79
2021/06/18 12:05:12;;;;;;;4.80;4.50;;;42.90;29.10;;;;;;5078574;28;20447;-79
2021/06/18 12:07:39;;;;;;;4.97;4.33;;;43.20;27.80;;;;;;5078146;28;20459;-79
2021/06/18 12:10:08;;;;;;;4.27;4.03;;;43.50;27.60;;;;;;5078014;28;20483;-79
2021/06/18 12:12:47;;;;;;;4.57;4.27;;;43.80;27.50;;;;;;5078573;28;20458;-79
2021/06/18 12:15:25;;;;;;;4.30;4.10;;;43.90;28.70;;;;;;5079046;28;20467;-79
2021/06/18 12:17:54;;;;;;;5.20;4.90;;;44.30;29.40;;;;;;5078020;28;20451;-82
2021/06/18 12:20:26;;;;;;;4.50;4.20;;;44.50;27.50;;;;;;5079155;28;20554;-82
2021/06/18 12:22:53;;;;;;;4.30;4.00;;;44.60;27.40;;;;;;5078933;28;20529;-82
2021/06/18 12:25:19;;;;;;;4.27;4.00;;;44.50;27.00;;;;;;5079054;28;20452;-82
2021/06/18 12:27:48;;;;;;;4.97;4.60;;;44.60;28.40;;;;;;5078962;28;20456;-82
2021/06/18 12:30:17;;;;;;;4.43;4.13;;;44.90;25.80;;;;;;5078891;28;20463;-82
2021/06/18 12:32:45;;;;;;;5.17;4.67;;;45.40;27.20;;;;;;5079342;28;20457;-82
2021/06/18 12:35:16;;;;;;;4.33;4.03;;;45.90;27.00;;;;;;5082532;28;20517;-80
2021/06/18 12:37:49;;;;;;;4.10;3.90;;;46.50;24.80;;;;;;5082261;28;20461;-80
2021/06/18 12:40:20;;;;;;;4.40;4.20;;;46.80;25.30;;;;;;5081648;28;20467;-80
2021/06/18 12:42:51;;;;;;;4.30;4.00;;;46.90;25.90;;;;;;5081488;28;20436;-80
2021/06/18 12:45:20;;;;;;;4.50;4.20;;;47.20;25.70;;;;;;5081557;28;20435;-80
2021/06/18 12:47:48;;;;;;;3.80;3.60;;;47.50;24.40;;;;;;5081624;28;20819;-80
2021/06/18 12:50:25;;;;;;;4.30;4.10;;;47.50;22.80;;;;;;5081589;28;20478;-80
2021/06/18 12:52:53;;;;;;;3.97;3.67;;;47.20;23.80;;;;;;5080619;28;20933;-80
2021/06/18 12:55:26;;;;;;;4.10;3.77;;;46.70;21.50;;;;;;5081790;28;20495;-80
2021/06/18 12:58:04;;;;;;;4.00;3.73;;;46.30;22.10;;;;;;5081502;28;20474;-80
2021/06/18 13:00:32;;;;;;;4.07;3.77;;;46.20;24.60;;;;;;5081862;28;20636;-80
2021/06/18 13:02:58;;;;;;;4.30;3.60;;;46.40;23.50;;;;;;5081355;28;20447;-80
2021/06/18 13:05:26;;;;;;;3.53;3.33;;;46.70;21.90;;;;;;5081139;28;20450;-80
2021/06/18 13:07:53;;;;;;;4.60;4.20;;;46.90;23.40;;;;;;5081486;28;20474;-80
2021/06/18 13:10:20;;;;;;;3.73;3.50;;;47.20;22.70;;;;;;5081378;28;20472;-80
2021/06/18 13:12:55;;;;;;;5.00;4.50;;;47.50;22.10;;;;;;5080778;28;20464;-80
2021/06/18 13:15:30;;;;;;;4.13;3.93;;;47.80;22.20;;;;;;5080910;28;20486;-80
2021/06/18 13:18:00;;;;;;;4.03;3.60;;;47.90;22.10;;;;;;5081624;28;20473;-81
2021/06/18 13:20:31;;;;;;;6.80;4.10;;;47.90;23.60;;;;;;5081747;28;20549;-80
2021/06/18 13:22:58;;;;;;;4.23;3.93;;;48.00;22.20;;;;;;5081115;28;20448;-80
2021/06/18 13:25:29;;;;;;;4.20;3.90;;;48.00;22.10;;;;;;5081445;28;20450;-81
2021/06/18 13:28:01;;;;;;;4.73;4.00;;;48.10;21.10;;;;;;5080803;28;20454;-80
2021/06/18 13:30:30;;;;;;;4.83;4.47;;;48.10;21.20;;;;;;5081244;28;20475;-80
2021/06/18 13:32:58;;;;;;;5.27;4.97;;;48.20;21.40;;;;;;5080616;28;20474;-80
2021/06/18 13:35:29;;;;;;;4.63;4.30;;;48.30;21.30;;;;;;5080847;28;20486;-80
2021/06/18 13:38:00;;;;;;;4.80;4.30;;;48.40;20.70;;;;;;5081227;28;20463;-80
2021/06/18 13:40:46;;;;;;;5.03;4.53;;;48.50;20.80;;;;;;5080674;28;20977;-81
2021/06/18 13:43:13;;;;;;;4.20;4.00;;;48.80;21.70;;;;;;5081403;28;20443;-81
2021/06/18 13:45:42;;;;;;;5.37;4.97;;;49.00;21.10;;;;;;5081561;28;20439;-81
2021/06/18 13:48:09;;;;;;;4.77;4.23;;;49.10;21.70;;;;;;5081263;28;20452;-81
2021/06/18 13:50:39;;;;;;;4.83;4.43;;;49.00;21.50;;;;;;5081120;28;21006;-81
2021/06/18 13:53:06;;;;;;;5.80;5.30;;;49.10;21.00;;;;;;5081291;28;20498;-81
2021/06/18 13:55:34;;;;;;;6.27;4.50;;;49.10;20.40;;;;;;5081241;28;20490;-81
2021/06/18 13:58:00;;;;;;;5.80;5.40;;;49.10;21.30;;;;;;5080968;28;20462;-81
2021/06/18 14:00:27;;;;;;;5.30;5.00;;;49.00;20.70;;;;;;5080879;28;21014;-81
2021/06/18 14:02:58;;;;;;;5.00;4.60;;;48.80;21.50;;;;;;5081604;28;20818;-81
2021/06/18 14:05:25;;;;;;;5.77;5.23;;;48.70;21.70;;;;;;5081059;28;20470;-81
2021/06/18 14:07:52;;;;;;;5.77;4.77;;;48.50;21.90;;;;;;5081988;28;20455;-83
2021/06/18 14:10:18;;;;;;;5.37;4.87;;;48.40;21.20;;;;;;5080942;28;20467;-83
2021/06/18 14:12:45;;;;;;;5.17;4.77;;;48.50;21.40;;;;;;5081386;28;20469;-83
2021/06/18 14:15:18;;;;;;;5.90;5.30;;;48.70;22.80;;;;;;5081599;28;20578;-83
2021/06/18 14:17:45;;;;;;;5.10;4.70;;;48.80;22.00;;;;;;5081529;28;20458;-83
2021/06/18 14:20:13;;;;;;;5.00;4.63;;;48.90;21.70;;;;;;5081227;28;20462;-83
2021/06/18 14:22:40;;;;;;;6.00;5.60;;;49.00;21.60;;;;;;5081240;28;20443;-83
2021/06/18 14:25:08;;;;;;;5.17;4.77;;;49.10;21.80;;;;;;5081536;28;20448;-83
2021/06/18 14:27:35;;;;;;;5.40;5.10;;;49.30;20.70;;;;;;5081771;28;20482;-83
2021/06/18 14:30:02;;;;;;;6.23;5.63;;;49.50;21.30;;;;;;5083138;28;20467;-83
2021/06/18 14:32:29;;;;;;;5.17;4.63;;;49.70;21.80;;;;;;5087116;28;20451;-83
2021/06/18 14:34:57;;;;;;;7.80;4.90;;;49.50;21.00;;;;;;5094678;28;20512;-83
2021/06/18 14:37:26;;;;;;;5.63;5.00;;;49.20;20.50;;;;;;5088515;28;20793;-84
2021/06/18 14:39:53;;;;;;;6.20;5.53;;;48.80;20.90;;;;;;5084619;28;21011;-82
2021/06/18 14:42:24;;;;;;;6.17;4.53;;;48.70;20.90;;;;;;5085107;28;20463;-81
2021/06/18 14:44:51;;;;;;;6.10;4.93;;;48.80;22.10;;;;;;5085120;28;21011;-84
2021/06/18 14:47:18;;;;;;;5.60;5.17;;;49.00;21.40;;;;;;5084965;28;20439;-82
2021/06/18 14:49:45;;;;;;;6.00;5.60;;;49.20;21.60;;;;;;5086264;28;20473;-82
2021/06/18 14:52:11;;;;;;;5.53;5.13;;;49.50;23.20;;;;;;5087788;28;20466;-82
2021/06/18 14:54:45;;;;;;;5.93;5.53;;;49.90;21.20;;;;;;5086743;28;20447;-82
2021/06/18 14:57:12;;;;;;;6.33;5.77;;;50.10;20.90;;;;;;5085894;28;20436;-82
2021/06/18 14:59:40;;;;;;;5.47;5.03;;;50.30;20.30;;;;;;5084638;28;20497;-82
2021/06/18 15:02:08;;;;;;;5.00;4.70;;;50.20;20.60;;;;;;5085004;28;20482;-82
2021/06/18 15:04:35;;;;;;;5.20;4.70;;;50.30;21.10;;;;;;5084945;28;20477;-82
2021/06/18 15:07:02;;;;;;;5.03;4.70;;;50.40;21.50;;;;;;5085370;28;20451;-82
2021/06/18 15:09:30;;;;;;;6.07;5.47;;;50.50;21.20;;;;;;5083732;28;20971;-85
2021/06/18 15:11:58;;;;;;;5.00;4.60;;;50.60;21.10;;;;;;5084361;28;20454;-82
2021/06/18 15:14:25;;;;;;;5.70;5.30;;;50.80;20.70;;;;;;5085560;28;20446;-82
2021/06/18 15:16:53;;;;;;;5.10;4.63;;;50.90;20.80;;;;;;5084649;28;20448;-82
2021/06/18 15:19:20;;;;;;;6.07;4.70;;;51.00;19.50;;;;;;5080403;28;20546;-82
2021/06/18 15:21:47;;;;;;;6.50;5.20;;;51.10;19.50;;;;;;5081363;28;20538;-82
2021/06/18 15:24:14;;;;;;;6.70;5.73;;;51.10;20.50;;;;;;5082681;28;20450;-82
2021/06/18 15:26:41;;;;;;;6.03;5.60;;;51.10;19.80;;;;;;5080671;28;20491;-84
2021/06/18 15:29:37;;;;;;;5.40;4.90;;;51.00;19.70;;;;;;5074439;28;20454;-83
2021/06/18 15:38:22;;;;;;;5.60;5.07;;;51.00;20.30;;;;;;4931782;29;20437;-82
2021/06/18 15:40:49;;;;;;;5.07;4.50;;;51.00;19.50;;;;;;4995117;28;20463;-81
2021/06/18 15:43:16;;;;;;;5.40;5.00;;;51.00;20.40;;;;;;5069513;28;20444;-82
2021/06/18 15:45:44;;;;;;;4.90;4.53;;;51.10;20.20;;;;;;5058524;28;20494;-82
2021/06/18 15:48:11;;;;;;;5.00;4.50;;;51.20;19.80;;;;;;5058145;28;20453;-82
2021/06/18 15:50:38;;;;;;;4.80;4.40;;;51.50;20.20;;;;;;5058650;28;20472;-81
2021/06/18 15:53:05;;;;;;;6.53;5.33;;;51.60;20.00;;;;;;5060580;28;20452;-82
2021/06/18 15:55:31;;;;;;;5.67;5.33;;;51.80;19.70;;;;;;5059046;28;20451;-81
2021/06/18 15:57:58;;;;;;;5.67;5.23;;;50.70;19.20;;;;;;5058293;28;20484;-81
2021/06/18 16:00:27;;;;;;;5.50;5.00;;;49.50;19.50;;;;;;5057484;28;20464;-83
2021/06/18 16:02:55;;;;;;;6.27;5.00;;;48.60;20.00;;;;;;5057189;28;20495;-82
2021/06/18 16:05:22;;;;;;;5.50;5.10;;;48.20;21.50;;;;;;5072671;28;20490;-82
2021/06/18 16:07:49;;;;;;;6.20;5.70;;;48.40;21.20;;;;;;5076065;28;20459;-82
2021/06/18 16:10:16;;;;;;;5.17;4.77;;;48.70;21.50;;;;;;5076369;28;20475;-82
2021/06/18 16:12:42;;;;;;;5.80;4.63;;;49.10;21.00;;;;;;5076077;28;20967;-83
2021/06/18 16:15:10;;;;;;;5.27;4.40;;;49.50;20.60;;;;;;5076390;28;20865;-83
2021/06/18 16:17:36;;;;;;;5.37;5.07;;;49.80;19.70;;;;;;5076224;28;20439;-82
2021/06/18 16:20:06;;;;;;;5.33;4.90;;;50.00;19.90;;;;;;5076250;28;20471;-83
2021/06/18 16:22:33;;;;;;;5.80;5.13;;;50.10;19.60;;;;;;5075947;28;20482;-83
2021/06/18 16:25:00;;;;;;;5.83;4.80;;;50.20;19.50;;;;;;5076101;28;20469;-83
2021/06/18 16:27:27;;;;;;;4.70;4.47;;;50.30;19.60;;;;;;5075945;28;20447;-83
2021/06/18 16:29:54;;;;;;;5.10;4.70;;;50.30;19.50;;;;;;5076071;28;20490;-83
2021/06/18 16:32:22;;;;;;;7.03;5.10;;;50.30;19.80;;;;;;5075631;28;20455;-82
2021/06/18 16:34:50;;;;;;;5.77;5.20;;;50.30;19.90;;;;;;5076082;28;20467;-83
2021/06/18 16:37:19;;;;;;;5.77;5.20;;;50.50;19.80;;;;;;5076051;28;20534;-83
2021/06/18 16:39:45;;;;;;;5.20;4.70;;;50.50;19.10;;;;;;5078499;28;20471;-84
2021/06/18 16:42:15;;;;;;;5.60;5.10;;;50.30;19.70;;;;;;5077665;28;20450;-83
2021/06/18 16:44:42;;;;;;;7.17;5.50;;;50.20;20.20;;;;;;5075941;28;20850;-82
2021/06/18 16:47:09;;;;;;;6.37;5.77;;;49.80;20.20;;;;;;5075531;28;20487;-83
2021/06/18 16:49:36;;;;;;;5.70;5.23;;;49.20;20.00;;;;;;5075812;28;20477;-83
2021/06/18 16:52:03;;;;;;;5.60;5.10;;;48.50;20.10;;;;;;5077478;28;20451;-82
2021/06/18 16:54:33;;;;;;;5.67;5.17;;;47.70;20.50;;;;;;5079926;28;20462;-82
2021/06/18 16:57:00;;;;;;;8.53;6.23;;;46.60;20.60;;;;;;5063538;28;20448;-83
2021/06/18 16:59:27;;;;;;;6.80;5.87;;;45.70;21.50;;;;;;5057817;28;20440;-82
2021/06/18 17:01:56;;;;;;;6.20;5.60;;;44.60;22.20;;;;;;5062482;28;20452;-82
2021/06/18 17:04:23;;;;;;;6.00;5.50;;;43.80;23.20;;;;;;5063442;28;20471;-84
2021/06/18 17:06:54;;;;;;;41.37;39.57;;;42.80;24.50;;;;;;5061152;28;20480;-84
2021/06/18 17:09:21;;;;;;;20.83;19.30;;;41.90;25.80;;;;;;5065888;28;20483;-83
2021/06/18 17:11:49;;;;;;;11.43;10.63;;;41.00;27.00;;;;;;5060764;28;20953;-81
2021/06/18 17:14:26;;;;;;;42.97;40.73;;;40.30;27.70;;;;;;5060695;28;20452;-81
2021/06/18 17:16:53;;;;;;;25.17;23.63;;;39.50;28.50;;;;;;5060428;28;20444;-80
2021/06/18 17:19:20;;;;;;;21.03;19.60;;;38.80;29.70;;;;;;5060004;28;20831;-81
2021/06/18 17:21:46;;;;;;;42.67;40.27;;;38.10;29.80;;;;;;5060133;28;20450;-80
2021/06/18 17:24:16;;;;;;;26.60;24.90;;;37.60;30.50;;;;;;5060770;28;20456;-81
2021/06/18 17:26:43;;;;;;;14.53;10.47;;;37.00;30.90;;;;;;5060781;28;20496;-81
2021/06/18 17:29:14;;;;;;;12.53;11.40;;;36.50;31.40;;;;;;5067756;28;20471;-80
2021/06/18 17:31:41;;;;;;;15.87;14.83;;;36.10;31.70;;;;;;5070568;28;20440;-81
2021/06/18 17:34:08;;;;;;;23.77;22.23;;;35.70;32.30;;;;;;5059836;28;20467;-80
2021/06/18 17:36:35;;;;;;;36.73;34.13;;;35.30;33.10;;;;;;5060292;28;20451;-80
2021/06/18 17:39:01;;;;;;;40.97;38.33;;;34.90;34.30;;;;;;5059676;28;20449;-79